Terminal Aerodrome Forecast
Issued by NWS Detroit/Pontiac, MI

Home | Current Version | Previous Version | Text Only | Print | Product List | Glossary On
Versions: 1 2 3 4 5 6 7 8 9 10 11 12
390
FTUS43 KDTX 280520
TAFFNT
TAF
KFNT 280520Z 2806/0106 16006KT P6SM SCT100 BKN200
     FM280900 15005KT 5SM BR BKN100
     FM281300 13010KT 2SM -SHRA BR OVC012
     FM281600 15010KT 3SM -DZ BR OVC012
     FM281900 17010KT P6SM BKN012 OVC022
     FM282300 18012KT 4SM SHRA BR OVC008
     FM010500 20014KT 2SM SHRA BR OVC004=

USA.gov is the U.S. government's official web portal to all federal, state and local government web resources and services.